createdAt,value
2018-12-14T00:02:20.640Z,97.81
2018-12-14T00:04:49.533Z,97.79
2018-12-14T00:07:18.445Z,97.11
2018-12-14T00:09:47.666Z,97.60
2018-12-14T00:12:16.689Z,97.27
2018-12-14T00:14:45.596Z,97.23
2018-12-14T00:17:15.152Z,96.25
2018-12-14T00:19:44.001Z,96.35
2018-12-14T00:22:13.476Z,96.49
2018-12-14T00:24:42.417Z,96.23
2018-12-14T00:27:11.651Z,96.37
2018-12-14T00:29:40.862Z,96.56
2018-12-14T00:32:10.508Z,96.56
2018-12-14T00:34:39.512Z,96.46
2018-12-14T00:37:08.398Z,95.84
2018-12-14T00:39:37.987Z,95.30
2018-12-14T00:42:07.431Z,94.58
2018-12-14T00:44:36.299Z,95.04
2018-12-14T00:47:05.419Z,95.80
2018-12-14T00:49:34.374Z,95.16
2018-12-14T00:52:03.359Z,95.04
2018-12-14T00:54:32.365Z,95.14
2018-12-14T00:57:01.248Z,95.53
2018-12-14T00:59:30.260Z,94.94
2018-12-14T01:01:59.338Z,94.82
2018-12-14T01:04:28.241Z,94.56
2018-12-14T01:06:57.151Z,94.64
2018-12-14T01:09:26.757Z,94.21
2018-12-14T01:11:58.313Z,93.83
2018-12-14T01:14:26.891Z,93.38
2018-12-14T01:16:55.823Z,93.85
2018-12-14T01:19:24.743Z,93.86
2018-12-14T01:21:53.759Z,94.31
2018-12-14T01:24:22.811Z,94.22
2018-12-14T01:26:51.740Z,94.44
2018-12-14T01:29:20.700Z,94.31
2018-12-14T01:31:49.555Z,94.59
2018-12-14T01:34:18.531Z,94.90
2018-12-14T01:36:47.889Z,94.62
2018-12-14T01:39:17.062Z,94.15
2018-12-14T01:41:45.926Z,94.47
2018-12-14T01:44:15.265Z,94.77
2018-12-14T01:46:44.854Z,94.58
2018-12-14T01:49:13.830Z,95.02
2018-12-14T01:51:42.854Z,94.42
2018-12-14T01:54:12.267Z,94.35
2018-12-14T01:56:41.559Z,94.48
2018-12-14T01:59:10.602Z,94.40
2018-12-14T02:01:39.898Z,94.36
2018-12-14T02:04:08.830Z,94.09
2018-12-14T02:06:37.893Z,94.70
2018-12-14T02:09:07.515Z,94.83
2018-12-14T02:11:36.386Z,94.27
2018-12-14T02:14:05.525Z,94.71
2018-12-14T02:16:34.377Z,94.64
2018-12-14T02:19:03.288Z,94.46
2018-12-14T02:21:32.318Z,94.55
2018-12-14T02:24:01.283Z,94.53
2018-12-14T02:26:30.345Z,94.52
2018-12-14T02:28:59.316Z,94.99
2018-12-14T02:31:28.396Z,94.90
2018-12-14T02:33:57.293Z,94.40
2018-12-14T02:36:26.753Z,93.88
2018-12-14T02:38:56.007Z,93.26
2018-12-14T02:41:25.037Z,93.35
2018-12-14T02:43:53.922Z,93.19
2018-12-14T02:46:22.792Z,93.46
2018-12-14T02:48:51.761Z,93.28
2018-12-14T02:51:20.770Z,92.93
2018-12-14T02:53:49.658Z,92.85
2018-12-14T02:56:18.662Z,93.15
2018-12-14T02:58:47.603Z,93.26
2018-12-14T03:01:16.584Z,93.49
2018-12-14T03:03:45.562Z,93.58
2018-12-14T03:06:14.783Z,93.85
2018-12-14T03:08:43.650Z,94.69
2018-12-14T03:11:12.560Z,94.38
2018-12-14T03:13:41.473Z,94.34
2018-12-14T03:16:10.555Z,94.43
2018-12-14T03:18:40.129Z,95.43
2018-12-14T03:21:09.016Z,95.62
2018-12-14T03:23:37.946Z,95.72
2018-12-14T03:26:07.005Z,96.25
2018-12-14T03:28:36.744Z,95.85
2018-12-14T03:31:05.668Z,95.83
2018-12-14T03:33:36.596Z,96.19
2018-12-14T03:36:05.962Z,96.04
2018-12-14T03:38:35.129Z,95.92
2018-12-14T03:41:04.121Z,95.93
2018-12-14T03:43:33.018Z,95.69
2018-12-14T03:46:08.519Z,95.98
2018-12-14T03:48:43.264Z,95.22
2018-12-14T03:51:20.295Z,94.85
2018-12-14T03:53:55.339Z,94.44
2018-12-14T03:56:24.281Z,94.75
2018-12-14T03:58:53.268Z,94.34
2018-12-14T04:01:22.244Z,94.80
2018-12-14T04:03:51.210Z,95.07
2018-12-14T04:06:20.107Z,95.01
2018-12-14T04:08:49.039Z,94.70
2018-12-14T04:11:17.992Z,94.68
2018-12-14T04:13:47.098Z,94.88
2018-12-14T04:16:16.125Z,94.79
2018-12-14T04:18:45.094Z,94.68
2018-12-14T04:21:14.207Z,94.75
2018-12-14T04:23:43.250Z,95.19
2018-12-14T04:26:12.772Z,94.87
2018-12-14T04:28:42.963Z,94.39
2018-12-14T04:31:12.115Z,94.38
2018-12-14T04:33:41.136Z,94.76
2018-12-14T04:36:10.313Z,94.23
2018-12-14T04:38:39.234Z,94.44
2018-12-14T04:41:08.258Z,94.22
2018-12-14T04:43:37.223Z,94.22
2018-12-14T04:46:06.240Z,93.93
2018-12-14T04:48:35.214Z,93.51
2018-12-14T04:51:04.177Z,93.76
2018-12-14T04:53:33.159Z,93.12
2018-12-14T04:56:02.457Z,93.27
2018-12-14T04:58:31.583Z,93.41
2018-12-14T05:01:00.525Z,93.45
2018-12-14T05:03:29.500Z,93.20
2018-12-14T05:05:58.356Z,93.38
2018-12-14T05:08:27.944Z,93.54
2018-12-14T05:10:56.857Z,93.24
2018-12-14T05:13:25.740Z,93.43
2018-12-14T05:15:54.676Z,92.79
2018-12-14T05:18:23.698Z,93.24
2018-12-14T05:20:52.992Z,93.69
2018-12-14T05:23:22.810Z,93.74
2018-12-14T05:25:51.838Z,93.81
2018-12-14T05:28:21.307Z,93.68
2018-12-14T05:30:50.279Z,93.02
2018-12-14T05:33:19.325Z,93.29
2018-12-14T05:35:48.362Z,93.35
2018-12-14T05:38:17.264Z,93.37
2018-12-14T05:40:46.275Z,93.45
2018-12-14T05:43:15.170Z,92.42
2018-12-14T05:45:44.103Z,93.00
2018-12-14T05:48:13.132Z,91.88
2018-12-14T05:50:42.044Z,91.83
2018-12-14T05:53:11.077Z,91.33
2018-12-14T05:55:40.655Z,92.09
2018-12-14T05:58:09.781Z,92.55
2018-12-14T06:00:38.636Z,92.63
2018-12-14T06:03:07.623Z,92.94
2018-12-14T06:05:36.552Z,93.50
2018-12-14T06:08:05.581Z,93.83
2018-12-14T06:10:34.717Z,94.28
2018-12-14T06:13:09.074Z,94.39
2018-12-14T06:15:34.947Z,94.25
2018-12-14T06:18:03.905Z,94.65
2018-12-14T06:20:32.774Z,94.25
2018-12-14T06:23:01.647Z,94.88
2018-12-14T06:25:30.656Z,95.09
2018-12-14T06:28:00.628Z,95.24
2018-12-14T06:30:29.735Z,95.34
2018-12-14T06:32:58.607Z,95.14
2018-12-14T06:35:27.515Z,95.23
2018-12-14T06:37:56.447Z,95.44
2018-12-14T06:40:25.285Z,95.47
2018-12-14T06:42:54.174Z,95.02
2018-12-14T06:45:23.337Z,95.41
2018-12-14T06:47:52.162Z,95.07
2018-12-14T06:50:21.050Z,94.29
2018-12-14T06:52:50.608Z,94.15
2018-12-14T06:55:19.594Z,94.16
2018-12-14T06:57:48.501Z,95.30
2018-12-14T07:00:17.517Z,95.20
2018-12-14T07:02:46.434Z,95.20
2018-12-14T07:05:15.409Z,94.14
2018-12-14T07:07:44.592Z,94.78
2018-12-14T07:10:13.485Z,94.82
2018-12-14T07:12:42.344Z,94.63
2018-12-14T07:15:11.622Z,95.04
2018-12-14T07:17:40.485Z,94.80
2018-12-14T07:20:09.750Z,95.14
2018-12-14T07:22:38.707Z,94.70
2018-12-14T07:25:07.783Z,93.97
2018-12-14T07:27:36.613Z,94.86
2018-12-14T07:30:06.623Z,95.17
2018-12-14T07:32:37.996Z,94.82
2018-12-14T07:35:06.992Z,94.84
2018-12-14T07:37:36.063Z,95.78
2018-12-14T07:40:06.354Z,96.55
2018-12-14T07:42:35.952Z,97.07
2018-12-14T07:45:06.145Z,96.68
2018-12-14T07:47:35.039Z,96.70
2018-12-14T07:50:04.593Z,96.68
2018-12-14T07:52:33.446Z,97.12
2018-12-14T07:55:02.351Z,97.83
2018-12-14T07:57:31.368Z,98.62
2018-12-14T08:00:00.223Z,98.67
2018-12-14T08:02:29.192Z,98.03
2018-12-14T08:04:58.112Z,98.33
2018-12-14T08:07:27.262Z,98.28
2018-12-14T08:09:56.224Z,98.45
2018-12-14T08:12:25.212Z,98.50
2018-12-14T08:14:54.091Z,97.96
2018-12-14T08:17:22.939Z,97.92
2018-12-14T08:19:51.959Z,97.31
2018-12-14T08:22:20.899Z,98.12
2018-12-14T08:24:49.788Z,97.73
2018-12-14T08:27:18.705Z,97.68
2018-12-14T08:29:47.642Z,97.12
2018-12-14T08:32:16.966Z,97.29
2018-12-14T08:34:50.891Z,97.07
2018-12-14T08:37:17.035Z,97.35
2018-12-14T08:39:45.959Z,96.61
2018-12-14T08:42:14.861Z,96.92
2018-12-14T08:44:43.727Z,97.30
2018-12-14T08:47:12.781Z,96.46
2018-12-14T08:49:41.676Z,96.21
2018-12-14T08:52:10.624Z,96.18
2018-12-14T08:54:39.757Z,96.56
2018-12-14T08:57:08.646Z,95.62
2018-12-14T08:59:37.551Z,96.46
2018-12-14T09:02:06.696Z,96.31
2018-12-14T09:04:35.570Z,96.31
2018-12-14T09:07:04.418Z,95.81
2018-12-14T09:09:33.348Z,95.56
2018-12-14T09:12:02.756Z,96.06
2018-12-14T09:14:32.019Z,95.98
2018-12-14T09:17:00.936Z,96.84
2018-12-14T09:19:29.809Z,96.92
2018-12-14T09:21:58.661Z,96.41
2018-12-14T09:24:27.633Z,96.38
2018-12-14T09:26:56.537Z,96.25
2018-12-14T09:29:25.908Z,95.89
2018-12-14T09:31:54.934Z,96.22
2018-12-14T09:34:23.786Z,95.45
2018-12-14T09:36:52.751Z,94.79
2018-12-14T09:39:21.710Z,95.05
2018-12-14T09:41:50.717Z,95.44
2018-12-14T09:44:19.618Z,95.73
2018-12-14T09:46:48.643Z,96.26
2018-12-14T09:49:17.613Z,96.04
2018-12-14T09:51:46.734Z,95.30
2018-12-14T09:54:15.790Z,95.38
2018-12-14T09:56:44.763Z,95.21
2018-12-14T09:59:13.623Z,95.53
2018-12-14T10:01:42.620Z,95.32
2018-12-14T10:04:11.442Z,95.87
2018-12-14T10:06:40.848Z,95.28
2018-12-14T10:09:09.846Z,95.11
2018-12-14T10:11:38.813Z,94.74
2018-12-14T10:14:08.739Z,94.94
2018-12-14T10:16:37.703Z,95.07
2018-12-14T10:19:06.957Z,94.44
2018-12-14T10:21:36.206Z,94.43
2018-12-14T10:24:05.087Z,94.35
2018-12-14T10:26:34.053Z,93.16
2018-12-14T10:29:03.042Z,93.30
2018-12-14T10:31:32.056Z,93.06
2018-12-14T10:34:01.229Z,93.39
2018-12-14T10:36:30.454Z,93.15
2018-12-14T10:38:59.446Z,92.67
2018-12-14T10:41:28.400Z,92.26
2018-12-14T10:43:57.405Z,91.03
2018-12-14T10:46:26.304Z,91.56
2018-12-14T10:48:55.159Z,90.62
2018-12-14T10:51:24.422Z,90.77
2018-12-14T10:53:53.398Z,91.16
2018-12-14T10:56:22.246Z,90.96
2018-12-14T10:58:51.141Z,90.96
2018-12-14T11:01:25.562Z,90.59
2018-12-14T11:03:54.574Z,90.42
2018-12-14T11:06:23.469Z,89.99
2018-12-14T11:08:53.326Z,90.36
2018-12-14T11:11:22.231Z,89.46
2018-12-14T11:13:51.128Z,88.85
2018-12-14T11:16:20.263Z,88.71
2018-12-14T11:18:49.241Z,87.32
2018-12-14T11:21:18.083Z,87.34
2018-12-14T11:23:46.968Z,87.58
2018-12-14T11:26:15.900Z,86.20
2018-12-14T11:28:44.880Z,86.99
2018-12-14T11:31:14.547Z,86.59
2018-12-14T11:33:43.580Z,86.24
2018-12-14T11:36:13.036Z,86.51
2018-12-14T11:38:41.929Z,87.18
2018-12-14T11:41:10.903Z,86.90
2018-12-14T11:43:39.957Z,86.03
2018-12-14T11:46:08.919Z,86.03
2018-12-14T11:48:37.975Z,85.06
2018-12-14T11:51:09.037Z,85.96
2018-12-14T11:53:39.915Z,85.91
2018-12-14T11:56:09.153Z,85.12
2018-12-14T11:58:38.072Z,84.45
2018-12-14T12:01:07.047Z,84.88
2018-12-14T12:03:36.032Z,85.10
2018-12-14T12:06:05.025Z,85.11
2018-12-14T12:08:33.959Z,84.81
2018-12-14T12:11:03.306Z,84.39
2018-12-14T12:13:32.198Z,84.48
2018-12-14T12:16:01.159Z,84.70
2018-12-14T12:18:30.109Z,83.84
2018-12-14T12:20:58.995Z,84.64
2018-12-14T12:23:28.175Z,84.60
2018-12-14T12:25:57.137Z,84.36
2018-12-14T12:28:26.003Z,84.14
2018-12-14T12:30:55.039Z,84.83
2018-12-14T12:33:24.045Z,84.29
2018-12-14T12:35:53.035Z,84.24
2018-12-14T12:38:21.953Z,83.95
2018-12-14T12:40:50.952Z,84.77
2018-12-14T12:43:19.847Z,85.02
2018-12-14T12:45:48.777Z,85.01
2018-12-14T12:48:17.835Z,84.67
2018-12-14T12:50:46.728Z,84.75
2018-12-14T12:53:18.490Z,83.94
2018-12-14T12:55:47.813Z,83.74
2018-12-14T12:58:17.109Z,82.59
2018-12-14T13:00:46.077Z,82.67
2018-12-14T13:03:14.954Z,82.39
2018-12-14T13:05:43.854Z,82.17
2018-12-14T13:08:13.070Z,82.56
2018-12-14T13:10:41.931Z,81.69
2018-12-14T13:13:10.798Z,81.62
2018-12-14T13:15:39.722Z,82.27
2018-12-14T13:18:08.861Z,82.19
2018-12-14T13:20:38.013Z,81.97
2018-12-14T13:23:06.966Z,83.07
2018-12-14T13:25:35.846Z,81.75
2018-12-14T13:28:05.380Z,82.12
2018-12-14T13:30:35.043Z,82.02
2018-12-14T13:33:04.348Z,82.12
2018-12-14T13:35:33.238Z,81.26
2018-12-14T13:38:02.717Z,81.92
2018-12-14T13:40:31.668Z,80.76
2018-12-14T13:43:00.654Z,82.31
2018-12-14T13:45:30.001Z,82.54
2018-12-14T13:47:59.343Z,82.88
2018-12-14T13:50:28.271Z,82.81
2018-12-14T13:52:57.169Z,82.67
2018-12-14T13:55:26.195Z,83.18
2018-12-14T13:57:55.240Z,83.66
2018-12-14T14:00:24.267Z,83.82
2018-12-14T14:02:53.160Z,83.49
2018-12-14T14:05:22.123Z,83.60
2018-12-14T14:07:51.037Z,83.95
2018-12-14T14:10:19.987Z,84.09
2018-12-14T14:12:48.865Z,83.71
2018-12-14T14:15:20.869Z,83.99
2018-12-14T14:17:48.694Z,83.52
2018-12-14T14:20:18.121Z,84.17
2018-12-14T14:22:47.353Z,84.78
2018-12-14T14:25:17.595Z,84.95
2018-12-14T14:27:46.750Z,84.90
2018-12-14T14:30:15.654Z,85.23
2018-12-14T14:32:45.147Z,85.17
2018-12-14T14:35:14.132Z,85.65
2018-12-14T14:37:42.979Z,85.55
2018-12-14T14:40:12.095Z,85.42
2018-12-14T14:42:41.078Z,86.31
2018-12-14T14:45:09.999Z,86.47
2018-12-14T14:47:39.348Z,86.99
2018-12-14T14:50:10.247Z,85.66
2018-12-14T14:52:39.250Z,85.60
2018-12-14T14:55:08.295Z,86.30
2018-12-14T14:57:38.276Z,85.93
2018-12-14T15:00:08.546Z,86.16
2018-12-14T15:02:37.716Z,86.78
2018-12-14T15:05:07.206Z,86.32
2018-12-14T15:07:36.424Z,86.89
2018-12-14T15:10:07.016Z,87.21
2018-12-14T15:12:35.993Z,87.41
2018-12-14T15:15:06.767Z,87.36
2018-12-14T15:17:36.102Z,87.50
2018-12-14T15:20:05.436Z,87.39
2018-12-14T15:22:34.342Z,87.51
2018-12-14T15:25:03.350Z,87.53
2018-12-14T15:27:32.276Z,88.01
2018-12-14T15:30:01.287Z,87.65
2018-12-14T15:32:30.235Z,87.92
2018-12-14T15:34:59.346Z,87.68
2018-12-14T15:37:28.458Z,88.64
2018-12-14T15:39:57.501Z,88.62
2018-12-14T15:42:26.365Z,89.09
2018-12-14T15:44:55.313Z,88.86
2018-12-14T15:47:24.361Z,88.74
2018-12-14T15:49:53.424Z,89.32
2018-12-14T15:52:22.423Z,89.43
2018-12-14T15:54:51.365Z,89.28
2018-12-14T15:57:20.695Z,89.81
2018-12-14T15:59:49.587Z,89.48
2018-12-14T16:02:18.588Z,90.11
2018-12-14T16:04:47.603Z,89.65
2018-12-14T16:07:16.577Z,89.44
2018-12-14T16:09:45.530Z,90.08
2018-12-14T16:12:14.499Z,89.75
2018-12-14T16:14:46.216Z,89.81
2018-12-14T16:17:15.185Z,89.25
2018-12-14T16:19:44.436Z,89.58
2018-12-14T16:22:13.496Z,88.62
2018-12-14T16:24:42.531Z,89.01
2018-12-14T16:27:11.534Z,89.19
2018-12-14T16:29:40.437Z,88.98
2018-12-14T16:32:09.335Z,89.44
2018-12-14T16:34:38.265Z,89.28
2018-12-14T16:37:07.256Z,89.16
2018-12-14T16:39:36.375Z,89.88
2018-12-14T16:42:05.411Z,89.72
2018-12-14T16:44:34.343Z,89.32
2018-12-14T16:47:03.341Z,89.35
2018-12-14T16:49:32.265Z,89.32
2018-12-14T16:52:01.376Z,89.66
2018-12-14T16:54:30.283Z,90.05
2018-12-14T16:56:59.193Z,89.25
2018-12-14T16:59:28.225Z,89.47
2018-12-14T17:01:57.152Z,89.62
2018-12-14T17:04:26.164Z,89.89
2018-12-14T17:06:55.162Z,88.69
2018-12-14T17:09:24.144Z,89.73
2018-12-14T17:11:52.994Z,89.40
2018-12-14T17:14:22.161Z,89.20
2018-12-14T17:16:51.144Z,89.24
2018-12-14T17:19:20.030Z,89.51
2018-12-14T17:21:49.054Z,89.69
2018-12-14T17:24:18.065Z,89.00
2018-12-14T17:26:47.151Z,89.91
2018-12-14T17:29:16.539Z,89.71
2018-12-14T17:31:45.465Z,89.82
2018-12-14T17:34:14.413Z,89.37
2018-12-14T17:36:43.444Z,89.50
2018-12-14T17:39:12.544Z,89.28
2018-12-14T17:41:41.514Z,89.53
2018-12-14T17:44:10.644Z,88.98
2018-12-14T17:46:39.928Z,89.05
2018-12-14T17:49:08.778Z,89.19
2018-12-14T17:51:38.003Z,89.24
2018-12-14T17:54:06.912Z,88.80
2018-12-14T17:56:35.820Z,89.56
2018-12-14T17:59:05.308Z,89.65
2018-12-14T18:01:34.396Z,89.21
2018-12-14T18:04:05.476Z,89.88
2018-12-14T18:06:35.860Z,89.09
2018-12-14T18:09:05.810Z,89.33
2018-12-14T18:11:35.406Z,89.17
2018-12-14T18:14:04.415Z,89.70
2018-12-14T18:16:33.354Z,89.56
2018-12-14T18:19:02.541Z,89.92
2018-12-14T18:21:31.500Z,90.39
2018-12-14T18:24:00.708Z,90.04
2018-12-14T18:26:29.998Z,90.21
2018-12-14T18:28:58.877Z,89.71
2018-12-14T18:31:28.523Z,90.30
2018-12-14T18:33:57.463Z,89.56
2018-12-14T18:36:26.357Z,89.80
2018-12-14T18:38:55.486Z,89.92
2018-12-14T18:41:24.668Z,90.17
2018-12-14T18:43:53.653Z,90.35
2018-12-14T18:46:23.899Z,90.18
2018-12-14T18:48:52.911Z,89.98
2018-12-14T18:51:21.903Z,89.98
2018-12-14T18:53:56.351Z,90.63
2018-12-14T18:56:26.439Z,90.56
2018-12-14T18:58:56.326Z,91.15
2018-12-14T19:01:25.203Z,89.97
2018-12-14T19:03:57.365Z,91.29
2018-12-14T19:06:26.687Z,90.53
2018-12-14T19:08:55.565Z,90.84
2018-12-14T19:11:24.612Z,90.78
2018-12-14T19:13:53.511Z,89.95
2018-12-14T19:16:22.357Z,90.47
2018-12-14T19:18:51.370Z,90.51
2018-12-14T19:21:20.383Z,90.45
2018-12-14T19:23:49.295Z,90.44
2018-12-14T19:26:18.243Z,89.41
2018-12-14T19:28:47.415Z,89.98
2018-12-14T19:31:16.381Z,89.93
2018-12-14T19:33:45.288Z,90.26
2018-12-14T19:36:14.429Z,90.51
2018-12-14T19:38:43.457Z,90.09
2018-12-14T19:41:12.318Z,90.22
2018-12-14T19:43:41.547Z,90.92
2018-12-14T19:46:10.570Z,90.94
2018-12-14T19:48:39.460Z,91.24
2018-12-14T19:51:08.341Z,91.29
2018-12-14T19:53:37.435Z,91.25
2018-12-14T19:56:06.368Z,91.24
2018-12-14T19:58:35.251Z,91.10
2018-12-14T20:01:04.409Z,89.92
2018-12-14T20:03:33.395Z,91.24
2018-12-14T20:06:03.450Z,90.94
2018-12-14T20:08:32.416Z,91.26
2018-12-14T20:11:01.310Z,90.21
2018-12-14T20:13:30.421Z,91.00
2018-12-14T20:16:00.135Z,91.51
2018-12-14T20:18:29.332Z,91.33
2018-12-14T20:20:58.475Z,91.71
2018-12-14T20:23:27.963Z,90.97
2018-12-14T20:25:57.478Z,91.58
2018-12-14T20:28:26.739Z,91.51
2018-12-14T20:30:55.798Z,91.74
2018-12-14T20:33:25.362Z,92.25
2018-12-14T20:35:54.414Z,93.30
2018-12-14T20:38:23.456Z,93.51
2018-12-14T20:40:53.933Z,92.61
2018-12-14T20:43:24.314Z,94.80
2018-12-14T20:45:54.038Z,94.34
2018-12-14T20:48:28.167Z,93.50
2018-12-14T20:50:57.183Z,93.06
2018-12-14T20:53:26.785Z,92.68
2018-12-14T20:55:56.587Z,93.11
2018-12-14T20:58:25.918Z,93.19
2018-12-14T21:00:54.891Z,93.09
2018-12-14T21:03:23.796Z,92.79
2018-12-14T21:05:53.307Z,93.00
2018-12-14T21:08:22.320Z,92.75
2018-12-14T21:10:51.258Z,92.07
2018-12-14T21:13:20.766Z,92.71
2018-12-14T21:15:49.741Z,91.64
2018-12-14T21:18:18.923Z,91.76
2018-12-14T21:20:47.951Z,92.57
2018-12-14T21:23:17.310Z,93.32
2018-12-14T21:25:47.285Z,92.92
2018-12-14T21:28:16.354Z,93.10
2018-12-14T21:30:45.452Z,93.25
2018-12-14T21:33:15.522Z,93.75
2018-12-14T21:35:44.755Z,94.04
2018-12-14T21:38:13.728Z,93.47
2018-12-14T21:40:42.837Z,93.39
2018-12-14T21:43:12.109Z,94.34
2018-12-14T21:45:41.099Z,95.03
2018-12-14T21:48:10.731Z,93.90
2018-12-14T21:50:40.200Z,93.70
2018-12-14T21:53:14.401Z,93.50
2018-12-14T21:55:40.266Z,93.51
2018-12-14T21:58:10.354Z,92.50
2018-12-14T22:00:39.380Z,92.34
2018-12-14T22:03:08.824Z,92.48
2018-12-14T22:05:37.862Z,93.33
2018-12-14T22:08:07.203Z,94.08
2018-12-14T22:10:36.133Z,93.82
2018-12-14T22:13:05.055Z,95.52
2018-12-14T22:15:33.951Z,94.76
2018-12-14T22:18:03.017Z,95.33
2018-12-14T22:20:32.672Z,94.31
2018-12-14T22:23:02.210Z,93.39
2018-12-14T22:25:31.466Z,93.22
2018-12-14T22:28:00.995Z,93.44
2018-12-14T22:30:30.729Z,94.30
2018-12-14T22:32:59.870Z,93.71
2018-12-14T22:35:30.045Z,93.85
2018-12-14T22:37:59.193Z,93.63
2018-12-14T22:40:28.956Z,93.24
2018-12-14T22:42:58.577Z,93.62
2018-12-14T22:45:28.651Z,93.41
2018-12-14T22:47:57.850Z,94.31
2018-12-14T22:50:28.282Z,94.86
2018-12-14T22:52:57.531Z,94.96
2018-12-14T22:55:28.559Z,94.53
2018-12-14T22:57:58.074Z,94.58
2018-12-14T23:00:27.846Z,95.04
2018-12-14T23:02:57.048Z,94.75
2018-12-14T23:05:27.559Z,95.55
2018-12-14T23:07:56.731Z,95.69
2018-12-14T23:10:25.821Z,95.92
2018-12-14T23:12:54.942Z,95.51
2018-12-14T23:15:24.211Z,96.11
2018-12-14T23:17:53.570Z,95.95
2018-12-14T23:20:23.035Z,96.09
2018-12-14T23:22:52.169Z,96.13
2018-12-14T23:25:21.341Z,95.74
2018-12-14T23:27:50.249Z,96.22
2018-12-14T23:30:19.233Z,95.33
2018-12-14T23:32:48.090Z,95.96
2018-12-14T23:35:17.005Z,95.36
2018-12-14T23:37:46.174Z,95.75
2018-12-14T23:40:15.114Z,95.63
2018-12-14T23:42:44.450Z,96.50
2018-12-14T23:45:13.453Z,96.18
2018-12-14T23:47:42.471Z,96.35
2018-12-14T23:50:11.996Z,96.64
2018-12-14T23:52:40.930Z,96.25
2018-12-14T23:55:10.325Z,95.48
2018-12-14T23:57:39.824Z,94.98
